CDT,Max TemperatureF,Mean TemperatureF,Min TemperatureF,Max Dew PointF,MeanDew PointF,Min DewpointF,Max Humidity, Mean Humidity, Min Humidity, Max Sea Level PressureIn, Mean Sea Level PressureIn, Min Sea Level PressureIn, Max VisibilityMiles, Mean VisibilityMiles, Min VisibilityMiles, Max Wind SpeedMPH, Mean Wind SpeedMPH, Max Gust SpeedMPH,PrecipitationIn, CloudCover, Events, WindDirDegrees
2012-10-1,72,64,56,58,54,48,90,72,53,29.77,29.70,29.65,10,10,10,16,8,25,0.04,5,Rain,8
2012-10-2,74,63,51,54,48,44,89,62,35,29.93,29.85,29.76,10,10,10,12,4,20,0.00,0,,311
2012-10-3,80,66,52,55,53,49,89,64,39,30.11,30.02,29.94,10,10,10,18,4,22,0.00,0,,216
2012-10-4,84,69,53,61,55,51,93,64,34,30.23,30.16,30.12,10,10,5,15,4,20,0.00,0,,189
2012-10-5,81,64,46,67,55,44,97,78,58,30.20,30.08,29.95,10,8,2,22,6,29,0.83,6,Rain-Thunderstorm,359
2012-10-6,57,50,42,44,39,33,93,68,43,30.26,30.21,30.18,10,10,8,21,6,25,0.06,4,Rain,10
2012-10-7,59,51,43,44,39,34,89,65,40,30.29,30.23,30.18,10,10,10,13,4,17,0.00,3,,360
2012-10-8,62,53,43,45,41,37,93,68,42,30.26,30.19,30.13,10,10,10,9,3,13,0.02,3,Rain,262
2012-10-9,68,55,41,51,44,39,93,69,45,30.15,30.07,29.97,10,10,7,16,6,26,0.00,2,,196
2012-10-10,67,57,46,54,43,34,86,58,29,30.28,30.19,30.03,10,10,10,16,6,23,0.00,2,,352
2012-10-11,57,53,48,54,47,40,93,78,63,30.29,30.23,30.18,10,10,2,9,5,16,0.30,8,Rain-Thunderstorm,65
2012-10-12,61,59,56,59,56,52,97,89,80,30.33,30.24,30.16,10,7,1,13,6,17,0.16,7,Rain-Thunderstorm,52
2012-10-13,82,71,60,66,62,59,100,76,51,30.22,30.11,29.92,10,4,0,22,9,29,0.00,3,Fog,154
2012-10-14,78,70,62,66,60,51,87,67,46,29.99,29.90,29.84,10,10,5,32,14,40,0.28,4,Rain,233
2012-10-15,76,63,50,55,49,46,89,63,36,30.06,30.00,29.95,10,10,10,10,2,15,0.00,0,,256
2012-10-16,78,66,53,54,52,50,89,64,39,29.96,29.86,29.77,10,10,10,24,8,28,0.00,0,,197
2012-10-17,80,68,55,67,59,53,86,69,51,29.77,29.60,29.47,10,9,2,29,13,38,0.45,5,Rain-Thunderstorm,214
2012-10-18,68,58,48,52,41,30,93,60,26,29.81,29.76,29.72,10,10,10,23,8,31,0.00,0,,261
2012-10-19,65,55,45,45,39,35,86,63,39,29.87,29.77,29.70,10,10,9,22,8,32,0.00,6,,270
2012-10-20,72,58,43,49,44,41,96,65,34,29.97,29.91,29.87,10,10,4,13,4,16,0.00,0,,217
2012-10-21,82,66,49,66,55,46,93,74,55,30.01,29.97,29.93,10,10,7,18,8,25,0.00,3,,185
2012-10-22,82,71,59,62,54,51,80,58,36,30.09,30.03,29.99,10,10,10,25,9,32,0.00,1,,187
2012-10-23,82,69,56,66,57,51,93,68,42,30.05,29.99,29.80,10,10,10,24,7,28,0.00,2,,187
2012-10-24,84,70,56,66,60,54,93,72,51,30.07,30.00,29.95,10,10,10,18,7,22,0.00,0,,185
2012-10-25,83,67,50,65,59,49,90,71,51,30.07,29.94,29.87,10,10,7,24,11,31,0.21,5,Rain,206
2012-10-26,50,47,43,48,43,32,93,78,62,30.26,30.17,30.08,10,8,2,20,9,30,0.40,7,Rain,12
2012-10-27,58,48,37,34,31,29,76,55,33,30.25,30.20,30.13,10,10,10,17,9,23,0.00,0,,3
2012-10-28,58,48,38,35,31,29,76,56,35,30.24,30.19,30.16,10,10,10,16,8,22,0.00,0,,359
2012-10-29,59,48,37,36,29,23,76,51,25,30.31,30.21,30.11,10,10,10,14,6,20,0.00,0,,336
2012-10-30,63,51,39,35,29,24,59,43,27,30.10,30.00,29.92,10,10,10,14,7,22,0.00,0,,307
2012-10-31,67,56,44,41,33,28,71,50,28,30.01,29.97,29.94,10,10,9,12,4,17,0.00,1,,320